Time;durP1;ratioP1;P1;durP2;ratioP2;P2;SDS_P1;SDS_P2;PMS_P1;PMS_P2;Temp;Humidity;BMP_temperature;BMP_pressure;BME280_temperature;BME280_humidity;BME280_pressure;Samples;Min_cycle;Max_cycle;Signal;HPM_P1;HPM_P2
2021/10/04 00:00:27;;;;;;;1.02;0.30;;;;;;;;;;5052904;28;20021;-57
2021/10/04 00:02:53;;;;;;;0.90;0.43;;;;;;;;;;5053063;28;20052;-57
2021/10/04 00:05:19;;;;;;;1.13;0.63;;;;;;;;;;5035282;28;20029;-58
2021/10/04 00:07:45;;;;;;;1.08;0.63;;;;;;;;;;5035685;28;20078;-57
2021/10/04 00:10:15;;;;;;;1.10;0.60;;;;;;;;;;5053028;28;20036;-58
2021/10/04 00:12:41;;;;;;;1.25;0.47;;;;;;;;;;5053245;28;20063;-57
2021/10/04 00:15:09;;;;;;;2.40;0.85;;;;;;;;;;5052984;28;20029;-57
2021/10/04 00:17:38;;;;;;;2.03;0.77;;;;;;;;;;5034666;28;20036;-57
2021/10/04 00:20:05;;;;;;;1.23;0.60;;;;;;;;;;5053325;28;20344;-58
2021/10/04 00:22:31;;;;;;;1.35;0.40;;;;;;;;;;5053917;28;20035;-57
2021/10/04 00:24:59;;;;;;;1.67;0.70;;;;;;;;;;5056776;28;20025;-56
2021/10/04 00:27:25;;;;;;;3.38;0.77;;;;;;;;;;5057281;28;20036;-58
2021/10/04 00:29:51;;;;;;;1.33;0.65;;;;;;;;;;5056883;28;20028;-57
2021/10/04 00:32:21;;;;;;;0.77;0.40;;;;;;;;;;5057541;28;20029;-57
2021/10/04 00:34:47;;;;;;;2.30;0.90;;;;;;;;;;5038695;28;20078;-57
2021/10/04 00:37:13;;;;;;;1.00;0.45;;;;;;;;;;5056713;28;20029;-57
2021/10/04 00:39:39;;;;;;;2.47;0.50;;;;;;;;;;5056626;28;20588;-57
2021/10/04 00:42:05;;;;;;;0.75;0.40;;;;;;;;;;5056836;28;20393;-57
2021/10/04 00:44:31;;;;;;;0.98;0.40;;;;;;;;;;5057128;28;20025;-57
2021/10/04 00:46:57;;;;;;;1.60;0.70;;;;;;;;;;5056748;28;20025;-55
2021/10/04 00:49:23;;;;;;;1.25;0.60;;;;;;;;;;5038561;28;20033;-57
2021/10/04 00:51:49;;;;;;;1.92;0.70;;;;;;;;;;5056589;28;20036;-57
2021/10/04 00:54:15;;;;;;;1.63;0.70;;;;;;;;;;5038223;28;20021;-57
2021/10/04 00:56:42;;;;;;;0.68;0.40;;;;;;;;;;5056400;28;20024;-57
2021/10/04 00:59:07;;;;;;;1.23;0.50;;;;;;;;;;5056387;28;20063;-57
2021/10/04 01:01:34;;;;;;;0.88;0.50;;;;;;;;;;5038047;28;20410;-58
2021/10/04 01:04:05;;;;;;;1.67;0.98;;;;;;;;;;5056746;28;20112;-57
2021/10/04 01:06:31;;;;;;;1.08;0.50;;;;;;;;;;5056667;28;20482;-57
2021/10/04 01:08:58;;;;;;;1.42;0.57;;;;;;;;;;5056653;28;20033;-57
2021/10/04 01:11:25;;;;;;;2.53;1.00;;;;;;;;;;5056468;28;20360;-58
2021/10/04 01:13:51;;;;;;;1.25;0.57;;;;;;;;;;5038044;28;20028;-57
2021/10/04 01:16:21;;;;;;;0.88;0.47;;;;;;;;;;5037763;28;20025;-57
2021/10/04 01:18:49;;;;;;;1.45;0.60;;;;;;;;;;5038449;28;20478;-57
2021/10/04 01:21:15;;;;;;;1.08;0.55;;;;;;;;;;5055908;28;20025;-57
2021/10/04 01:23:41;;;;;;;1.33;0.52;;;;;;;;;;5056390;28;20051;-57
2021/10/04 01:26:07;;;;;;;1.67;0.70;;;;;;;;;;5038513;28;20029;-57
2021/10/04 01:28:34;;;;;;;1.60;0.80;;;;;;;;;;5055530;28;20056;-58
2021/10/04 01:31:00;;;;;;;1.27;0.68;;;;;;;;;;5055664;28;20025;-57
2021/10/04 01:33:26;;;;;;;1.92;0.43;;;;;;;;;;5037457;28;20024;-57
2021/10/04 01:35:52;;;;;;;0.98;0.47;;;;;;;;;;5056130;28;20153;-57
2021/10/04 01:38:18;;;;;;;1.25;0.52;;;;;;;;;;5054759;28;20064;-57
2021/10/04 01:40:45;;;;;;;2.95;0.70;;;;;;;;;;5037216;28;20462;-57
2021/10/04 01:43:12;;;;;;;1.98;0.82;;;;;;;;;;5038394;28;20398;-57
2021/10/04 01:45:38;;;;;;;1.15;0.60;;;;;;;;;;5055975;28;20082;-57
2021/10/04 01:48:04;;;;;;;1.05;0.52;;;;;;;;;;5055340;28;20032;-57
2021/10/04 01:50:35;;;;;;;1.20;0.60;;;;;;;;;;5055330;28;20044;-58
2021/10/04 01:53:01;;;;;;;;;;;;;;;;;;5056229;28;20029;-58
2021/10/04 01:55:27;;;;;;;1.58;0.50;;;;;;;;;;5037815;28;20020;-57
2021/10/04 01:57:56;;;;;;;0.93;0.75;;;;;;;;;;5054792;28;20119;-57
2021/10/04 02:00:22;;;;;;;0.75;0.35;;;;;;;;;;5054942;28;20021;-57
2021/10/04 02:02:49;;;;;;;1.00;0.50;;;;;;;;;;5036926;28;20033;-58
2021/10/04 02:05:22;;;;;;;0.68;0.32;;;;;;;;;;5054618;28;20037;-58
2021/10/04 02:07:48;;;;;;;1.98;0.70;;;;;;;;;;5038374;28;20033;-57
2021/10/04 02:10:16;;;;;;;0.77;0.40;;;;;;;;;;5036997;28;20028;-58
2021/10/04 02:12:42;;;;;;;1.65;0.68;;;;;;;;;;5055388;28;20485;-57
2021/10/04 02:15:09;;;;;;;1.52;0.40;;;;;;;;;;5020607;28;20111;-58
2021/10/04 02:17:36;;;;;;;1.63;0.55;;;;;;;;;;5054527;28;20084;-58
2021/10/04 02:20:06;;;;;;;1.75;0.63;;;;;;;;;;5055546;28;20029;-58
2021/10/04 02:22:32;;;;;;;1.63;0.70;;;;;;;;;;5054721;28;20027;-57
2021/10/04 02:24:58;;;;;;;1.00;0.63;;;;;;;;;;5054219;28;20474;-58
2021/10/04 02:27:24;;;;;;;0.75;0.40;;;;;;;;;;5036824;28;20032;-57
2021/10/04 02:29:53;;;;;;;1.45;0.65;;;;;;;;;;5054789;28;20536;-58
2021/10/04 02:32:19;;;;;;;1.02;0.60;;;;;;;;;;5037396;28;20134;-58
2021/10/04 02:34:45;;;;;;;1.20;0.32;;;;;;;;;;5036527;28;20450;-58
2021/10/04 02:37:13;;;;;;;0.73;0.38;;;;;;;;;;5054277;28;20025;-57
2021/10/04 02:39:40;;;;;;;0.85;0.43;;;;;;;;;;5054321;28;20353;-58
2021/10/04 02:42:06;;;;;;;0.85;0.40;;;;;;;;;;5054183;28;20029;-58
2021/10/04 02:44:33;;;;;;;1.40;0.57;;;;;;;;;;5053992;28;20025;-57
2021/10/04 02:46:59;;;;;;;0.57;0.43;;;;;;;;;;5035835;28;20029;-57
2021/10/04 02:49:25;;;;;;;0.75;0.30;;;;;;;;;;5036514;28;20033;-57
2021/10/04 02:51:52;;;;;;;1.95;0.80;;;;;;;;;;5036490;28;20029;-57
2021/10/04 02:54:17;;;;;;;2.05;0.60;;;;;;;;;;5054828;28;20029;-57
2021/10/04 02:56:44;;;;;;;2.20;0.47;;;;;;;;;;5054113;28;20417;-57
2021/10/04 02:59:13;;;;;;;1.90;0.63;;;;;;;;;;5036392;28;20029;-56
2021/10/04 03:01:39;;;;;;;0.68;0.35;;;;;;;;;;5053880;28;20068;-57
2021/10/04 03:04:05;;;;;;;0.82;0.40;;;;;;;;;;5020303;28;20029;-57
2021/10/04 03:06:31;;;;;;;1.30;0.60;;;;;;;;;;5035928;28;20386;-57
2021/10/04 03:08:57;;;;;;;2.25;0.60;;;;;;;;;;5036514;28;20036;-57
2021/10/04 03:11:26;;;;;;;1.17;0.55;;;;;;;;;;5053877;28;20045;-57
2021/10/04 03:13:52;;;;;;;3.28;0.77;;;;;;;;;;5035903;28;20036;-57
2021/10/04 03:16:20;;;;;;;1.10;0.38;;;;;;;;;;5019210;28;20108;-57
2021/10/04 03:18:46;;;;;;;3.13;1.13;;;;;;;;;;5035759;28;20033;-57
2021/10/04 03:21:12;;;;;;;0.77;0.30;;;;;;;;;;5053647;28;20482;-57
2021/10/04 03:23:40;;;;;;;1.40;0.63;;;;;;;;;;5053888;28;20027;-57
2021/10/04 03:26:06;;;;;;;1.23;0.40;;;;;;;;;;5035304;28;20363;-57
2021/10/04 03:28:32;;;;;;;0.95;0.38;;;;;;;;;;5053154;28;20048;-57
2021/10/04 03:31:01;;;;;;;0.57;0.28;;;;;;;;;;5035860;28;20079;-58
2021/10/04 03:33:27;;;;;;;0.88;0.30;;;;;;;;;;5053636;28;20021;-57
2021/10/04 03:35:53;;;;;;;2.35;0.80;;;;;;;;;;5035541;28;20032;-57
2021/10/04 03:38:21;;;;;;;0.93;0.40;;;;;;;;;;5053522;28;20055;-57
2021/10/04 03:40:47;;;;;;;0.50;0.32;;;;;;;;;;5053457;28;20025;-57
2021/10/04 03:43:13;;;;;;;1.00;0.47;;;;;;;;;;5036052;28;20057;-57
2021/10/04 03:45:39;;;;;;;1.02;0.40;;;;;;;;;;5035642;28;20032;-57
2021/10/04 03:48:05;;;;;;;0.60;0.30;;;;;;;;;;5035116;28;20037;-57
2021/10/04 03:50:31;;;;;;;1.25;0.60;;;;;;;;;;5053233;28;20112;-57
2021/10/04 03:53:00;;;;;;;1.23;0.52;;;;;;;;;;5035429;28;20033;-55
2021/10/04 03:55:26;;;;;;;1.33;0.50;;;;;;;;;;5053144;28;20029;-57
2021/10/04 03:57:52;;;;;;;0.65;0.30;;;;;;;;;;5035573;28;20025;-58
2021/10/04 04:00:20;;;;;;;0.63;0.22;;;;;;;;;;5018935;28;20069;-57
2021/10/04 04:02:46;;;;;;;0.88;0.47;;;;;;;;;;5035858;28;20036;-57
2021/10/04 04:05:13;;;;;;;0.65;0.40;;;;;;;;;;5053046;28;20435;-57
2021/10/04 04:07:39;;;;;;;1.10;0.50;;;;;;;;;;5053038;28;20068;-57
2021/10/04 04:10:06;;;;;;;0.93;0.47;;;;;;;;;;5035166;28;20036;-57
2021/10/04 04:12:32;;;;;;;0.73;0.40;;;;;;;;;;5019222;28;20368;-57
2021/10/04 04:14:58;;;;;;;1.08;0.45;;;;;;;;;;5035919;28;20052;-58
2021/10/04 04:17:25;;;;;;;1.92;0.30;;;;;;;;;;5035364;28;20025;-57
2021/10/04 04:19:54;;;;;;;0.75;0.30;;;;;;;;;;5035736;28;20029;-57
2021/10/04 04:22:27;;;;;;;1.02;0.45;;;;;;;;;;5053398;28;20025;-58
2021/10/04 04:24:55;;;;;;;1.67;0.50;;;;;;;;;;5035340;28;20036;-57
2021/10/04 04:27:25;;;;;;;0.98;0.43;;;;;;;;;;5035438;28;20040;-58
2021/10/04 04:30:01;;;;;;;0.93;0.55;;;;;;;;;;5052789;28;20513;-58
2021/10/04 04:32:27;;;;;;;0.73;0.40;;;;;;;;;;5053849;28;20032;-57
2021/10/04 04:34:54;;;;;;;1.33;0.73;;;;;;;;;;5052717;28;20036;-57
2021/10/04 04:37:20;;;;;;;1.02;0.65;;;;;;;;;;5053628;28;20025;-58
2021/10/04 04:39:49;;;;;;;1.30;0.50;;;;;;;;;;5054085;28;20061;-58
2021/10/04 04:42:15;;;;;;;1.63;0.77;;;;;;;;;;5053369;28;20483;-57
2021/10/04 04:44:41;;;;;;;1.77;0.68;;;;;;;;;;5035393;28;20033;-57
2021/10/04 04:47:09;;;;;;;1.90;0.77;;;;;;;;;;5053074;28;20534;-57
2021/10/04 04:49:35;;;;;;;1.55;0.70;;;;;;;;;;5053723;28;20024;-58
2021/10/04 04:52:01;;;;;;;0.93;0.40;;;;;;;;;;5019733;28;20075;-58
2021/10/04 04:54:29;;;;;;;2.05;0.43;;;;;;;;;;5052923;28;20357;-58
2021/10/04 04:56:55;;;;;;;1.10;0.60;;;;;;;;;;5053145;28;20032;-58
2021/10/04 04:59:24;;;;;;;1.17;0.55;;;;;;;;;;5036102;28;20354;-58
2021/10/04 05:01:51;;;;;;;3.92;0.73;;;;;;;;;;5053271;28;20040;-58
2021/10/04 05:04:17;;;;;;;0.60;0.35;;;;;;;;;;5053834;28;20053;-57
2021/10/04 05:06:43;;;;;;;1.13;0.55;;;;;;;;;;5035666;28;20116;-58
2021/10/04 05:09:10;;;;;;;3.78;0.80;;;;;;;;;;5054116;28;20033;-58
2021/10/04 05:11:36;;;;;;;1.08;0.50;;;;;;;;;;5057214;28;20466;-58
2021/10/04 05:14:02;;;;;;;1.15;0.60;;;;;;;;;;5039021;28;20127;-58
2021/10/04 05:16:31;;;;;;;1.27;0.50;;;;;;;;;;5056698;28;20048;-58
2021/10/04 05:18:57;;;;;;;1.13;0.60;;;;;;;;;;5056342;28;20466;-57
2021/10/04 05:21:23;;;;;;;1.63;0.80;;;;;;;;;;5038668;28;20112;-57
2021/10/04 05:23:49;;;;;;;2.08;0.80;;;;;;;;;;5039258;28;20028;-57
2021/10/04 05:26:15;;;;;;;2.03;0.90;;;;;;;;;;5056402;28;20029;-58
2021/10/04 05:28:41;;;;;;;1.35;0.65;;;;;;;;;;5057056;28;20039;-57
2021/10/04 05:31:08;;;;;;;1.52;0.80;;;;;;;;;;5056097;28;20087;-56
2021/10/04 05:33:45;;;;;;;1.75;0.88;;;;;;;;;;5038894;28;20029;-58
2021/10/04 05:36:19;;;;;;;2.47;1.23;;;;;;;;;;5010607;28;20037;-58
2021/10/04 05:38:47;;;;;;;1.70;1.08;;;;;;;;;;5056523;28;20083;-58
2021/10/04 05:41:14;;;;;;;2.45;1.10;;;;;;;;;;5038592;28;20032;-58
2021/10/04 05:43:40;;;;;;;1.10;0.57;;;;;;;;;;5038257;28;20025;-58
2021/10/04 05:46:06;;;;;;;6.03;0.90;;;;;;;;;;5056249;28;20032;-58
2021/10/04 05:48:33;;;;;;;1.50;1.00;;;;;;;;;;5038502;28;20403;-58
2021/10/04 05:50:59;;;;;;;1.65;0.88;;;;;;;;;;5056023;28;20532;-58
2021/10/04 05:53:25;;;;;;;1.83;0.98;;;;;;;;;;5056064;28;20467;-58
2021/10/04 05:55:51;;;;;;;1.48;0.68;;;;;;;;;;5037734;28;20040;-58
2021/10/04 05:58:17;;;;;;;1.55;0.93;;;;;;;;;;5038012;28;20032;-57
2021/10/04 06:00:44;;;;;;;2.05;1.20;;;;;;;;;;5038670;28;20028;-58
2021/10/04 06:03:10;;;;;;;2.55;1.50;;;;;;;;;;5037873;28;20033;-58
2021/10/04 06:05:36;;;;;;;4.53;2.00;;;;;;;;;;5055572;28;20032;-58
2021/10/04 06:08:02;;;;;;;2.90;1.55;;;;;;;;;;5055756;28;20040;-58
2021/10/04 06:10:29;;;;;;;3.85;1.70;;;;;;;;;;5037539;28;20025;-58
2021/10/04 06:12:55;;;;;;;3.25;1.83;;;;;;;;;;5055403;28;20144;-56
2021/10/04 06:15:21;;;;;;;3.20;1.73;;;;;;;;;;5055432;28;20063;-58
2021/10/04 06:17:50;;;;;;;2.10;1.45;;;;;;;;;;5055445;28;20037;-59
2021/10/04 06:20:16;;;;;;;2.85;1.52;;;;;;;;;;5055329;28;20040;-58
2021/10/04 06:22:43;;;;;;;1.77;0.98;;;;;;;;;;5038166;28;20430;-59
2021/10/04 06:25:11;;;;;;;8.07;1.40;;;;;;;;;;5055304;28;20522;-59
2021/10/04 06:27:37;;;;;;;1.45;0.77;;;;;;;;;;5037447;28;20024;-58
2021/10/04 06:30:04;;;;;;;1.38;0.60;;;;;;;;;;5056084;28;20087;-58
2021/10/04 06:32:30;;;;;;;1.33;0.73;;;;;;;;;;5055537;28;20405;-59
2021/10/04 06:34:56;;;;;;;3.00;0.77;;;;;;;;;;5037958;28;20025;-59
2021/10/04 06:37:22;;;;;;;1.23;0.70;;;;;;;;;;5055039;28;20025;-59
2021/10/04 06:39:48;;;;;;;0.47;0.30;;;;;;;;;;5037156;28;20021;-59
2021/10/04 06:42:18;;;;;;;1.38;0.60;;;;;;;;;;5055075;28;20017;-59
2021/10/04 06:44:46;;;;;;;1.77;0.60;;;;;;;;;;5055548;28;20016;-59
2021/10/04 06:47:13;;;;;;;1.17;0.50;;;;;;;;;;5036610;28;20029;-59
2021/10/04 06:49:39;;;;;;;1.60;0.65;;;;;;;;;;5020781;28;20052;-59
2021/10/04 06:52:08;;;;;;;1.58;0.52;;;;;;;;;;5036988;28;20525;-59
2021/10/04 06:54:34;;;;;;;1.33;0.55;;;;;;;;;;5054779;28;20028;-59
2021/10/04 06:57:00;;;;;;;0.98;0.50;;;;;;;;;;5053718;28;20425;-59
2021/10/04 06:59:26;;;;;;;1.05;0.60;;;;;;;;;;5054729;28;20470;-59
2021/10/04 07:01:52;;;;;;;1.58;0.88;;;;;;;;;;5054613;28;20070;-59
2021/10/04 07:04:21;;;;;;;1.35;0.65;;;;;;;;;;5054610;28;20033;-59
2021/10/04 07:06:50;;;;;;;2.58;1.60;;;;;;;;;;5036854;28;20033;-59
2021/10/04 07:09:16;;;;;;;2.20;1.17;;;;;;;;;;5054919;28;20367;-59
2021/10/04 07:11:42;;;;;;;2.05;1.08;;;;;;;;;;5054782;28;20122;-59
2021/10/04 07:14:08;;;;;;;1.83;1.05;;;;;;;;;;5054920;28;20066;-59
2021/10/04 07:16:34;;;;;;;1.92;1.00;;;;;;;;;;5054504;28;20044;-59
2021/10/04 07:19:04;;;;;;;2.30;1.38;;;;;;;;;;5054818;28;20080;-59
2021/10/04 07:21:30;;;;;;;2.58;1.00;;;;;;;;;;5037218;28;20025;-59
2021/10/04 07:23:56;;;;;;;1.85;1.15;;;;;;;;;;5036727;28;20021;-59
2021/10/04 07:26:23;;;;;;;2.63;1.08;;;;;;;;;;5054924;28;20033;-59
2021/10/04 07:28:49;;;;;;;2.50;1.38;;;;;;;;;;5036387;28;20029;-59
2021/10/04 07:31:15;;;;;;;2.25;1.52;;;;;;;;;;5036045;28;20040;-59
2021/10/04 07:33:41;;;;;;;3.20;1.60;;;;;;;;;;5054661;28;20112;-59
2021/10/04 07:36:07;;;;;;;2.22;1.65;;;;;;;;;;5054077;28;20037;-59
2021/10/04 07:38:37;;;;;;;2.33;1.75;;;;;;;;;;5036191;28;20078;-59
2021/10/04 07:41:05;;;;;;;4.40;1.80;;;;;;;;;;5036756;28;20085;-59
2021/10/04 07:59:39;;;;;;;2.72;1.73;;;;;;;;;;5088935;27;20405;-58
2021/10/04 08:02:17;;;;;;;2.63;1.70;;;;;;;;;;5083054;28;20032;-58
2021/10/04 08:04:50;;;;;;;1.80;1.10;;;;;;;;;;5085393;28;20016;-58
2021/10/04 08:10:31;;;;;;;3.40;1.80;;;;;;;;;;5085284;28;20024;-58
2021/10/04 08:13:26;;;;;;;2.47;1.38;;;;;;;;;;5084514;28;20516;-58
2021/10/04 08:18:57;;;;;;;2.10;1.48;;;;;;;;;;5045877;28;20055;-59
2021/10/04 08:22:10;;;;;;;2.83;2.10;;;;;;;;;;5073178;28;20339;-58
2021/10/04 08:24:45;;;;;;;2.47;1.40;;;;;;;;;;5036012;28;20027;-58
2021/10/04 08:30:09;;;;;;;2.20;1.52;;;;;;;;;;5083777;28;20115;-58
2021/10/04 08:33:13;;;;;;;2.20;1.48;;;;;;;;;;5086160;28;20033;-58
2021/10/04 08:35:48;;;;;;;1.98;1.25;;;;;;;;;;5072098;28;20037;-58
2021/10/04 08:38:17;;;;;;;1.88;1.15;;;;;;;;;;5063087;28;20095;-58
2021/10/04 08:40:54;;;;;;;2.63;1.50;;;;;;;;;;5086644;28;20525;-58
2021/10/04 08:43:46;;;;;;;;;;;;;;;;;;;;;
2021/10/04 08:46:18;;;;;;;3.03;1.33;;;;;;;;;;5076372;28;20434;-58
2021/10/04 08:49:03;;;;;;;2.20;1.42;;;;;;;;;;5085527;28;20028;-58
2021/10/04 08:54:34;;;;;;;2.03;1.00;;;;;;;;;;5071946;28;20033;-58
2021/10/04 09:00:08;;;;;;;1.67;0.90;;;;;;;;;;5068252;28;20056;-58
2021/10/04 09:02:59;;;;;;;2.90;1.95;;;;;;;;;;5057858;28;20070;-58
2021/10/04 09:05:44;;;;;;;2.85;1.70;;;;;;;;;;5062413;28;20091;-58
2021/10/04 09:08:12;;;;;;;3.10;2.10;;;;;;;;;;5067250;28;20547;-59
2021/10/04 09:11:03;;;;;;;2.35;1.27;;;;;;;;;;5066691;28;20036;-58
2021/10/04 09:17:11;;;;;;;5.45;1.38;;;;;;;;;;5065713;28;20040;-59
2021/10/04 09:19:47;;;;;;;2.65;1.67;;;;;;;;;;5057068;28;20021;-58
2021/10/04 09:25:15;;;;;;;2.05;1.25;;;;;;;;;;5072717;28;20032;-59
2021/10/04 09:27:57;;;;;;;1.65;1.10;;;;;;;;;;5070612;28;20039;-58
2021/10/04 09:30:42;;;;;;;2.40;1.38;;;;;;;;;;5063252;28;20025;-58
2021/10/04 09:33:39;;;;;;;;;;;;;;;;;;;;;
2021/10/04 09:36:20;;;;;;;2.92;1.67;;;;;;;;;;5056024;28;20051;-58
2021/10/04 09:39:27;;;;;;;2.42;1.40;;;;;;;;;;5059580;28;20497;-59
2021/10/04 09:42:14;;;;;;;1.83;1.13;;;;;;;;;;5067690;28;20037;-58
2021/10/04 09:45:03;;;;;;;1.48;0.85;;;;;;;;;;5059365;28;20032;-58
2021/10/04 09:48:04;;;;;;;1.85;1.08;;;;;;;;;;5069179;28;20032;-58
2021/10/04 09:51:01;;;;;;;2.00;1.20;;;;;;;;;;5064014;28;20024;-58
2021/10/04 09:53:31;;;;;;;1.55;0.93;;;;;;;;;;5060917;28;20037;-59
2021/10/04 09:56:25;;;;;;;1.67;0.82;;;;;;;;;;5056289;28;20088;-58
2021/10/04 09:59:14;;;;;;;2.90;0.77;;;;;;;;;;5052323;28;20107;-58
2021/10/04 10:01:43;;;;;;;0.93;0.63;;;;;;;;;;5055447;28;20044;-58
2021/10/04 10:04:20;;;;;;;1.08;0.50;;;;;;;;;;5067474;28;20075;-59
2021/10/04 10:06:59;;;;;;;1.08;0.47;;;;;;;;;;5058081;28;20051;-58
2021/10/04 10:13:00;;;;;;;;;;;;;;;;;;;;;
2021/10/04 10:15:41;;;;;;;2.67;1.08;;;;;;;;;;5058221;28;20029;-59
2021/10/04 10:18:32;;;;;;;2.67;0.85;;;;;;;;;;5063794;28;20051;-58
2021/10/04 10:21:30;;;;;;;1.27;0.68;;;;;;;;;;5053304;28;20076;-58
2021/10/04 10:24:17;;;;;;;1.48;0.68;;;;;;;;;;5050059;28;20045;-58
2021/10/04 10:27:06;;;;;;;1.38;0.60;;;;;;;;;;5069888;28;20363;-59
2021/10/04 10:29:45;;;;;;;1.20;0.63;;;;;;;;;;5073740;28;20040;-59
2021/10/04 10:35:48;;;;;;;2.08;0.98;;;;;;;;;;5052771;28;20033;-59
2021/10/04 10:38:21;;;;;;;2.13;0.88;;;;;;;;;;5056362;28;20036;-58
2021/10/04 10:41:32;;;;;;;2.33;0.70;;;;;;;;;;5066688;28;20035;-58
2021/10/04 10:43:58;;;;;;;;;;;;;;;;;;5045519;28;20128;-58
2021/10/04 10:46:48;;;;;;;1.42;0.80;;;;;;;;;;5061864;28;19951;-58
2021/10/04 10:49:45;;;;;;;3.70;1.23;;;;;;;;;;5057552;28;20029;-58
2021/10/04 10:53:03;;;;;;;1.27;0.77;;;;;;;;;;5071476;28;20500;-59
2021/10/04 10:55:41;;;;;;;3.08;1.42;;;;;;;;;;5053938;28;20505;-58
2021/10/04 10:58:32;;;;;;;0.98;0.45;;;;;;;;;;5050454;28;20478;-58
2021/10/04 11:01:23;;;;;;;0.47;0.28;;;;;;;;;;5055172;28;22693;-59
2021/10/04 11:04:36;;;;;;;1.33;0.60;;;;;;;;;;5055727;28;20025;-61
2021/10/04 11:07:10;;;;;;;0.68;0.30;;;;;;;;;;5069071;28;20032;-58
2021/10/04 11:10:01;;;;;;;1.02;0.43;;;;;;;;;;5059376;28;20052;-59
2021/10/04 11:12:34;;;;;;;;;;;;;;;;;;5052767;28;20457;-59
2021/10/04 11:15:25;;;;;;;1.23;0.50;;;;;;;;;;5061249;28;20156;-59
2021/10/04 11:18:03;;;;;;;0.88;0.40;;;;;;;;;;5067369;28;20037;-59
2021/10/04 11:20:35;;;;;;;0.82;0.50;;;;;;;;;;5049381;28;20033;-58
2021/10/04 11:23:29;;;;;;;1.45;0.70;;;;;;;;;;5064372;28;20052;-59
2021/10/04 11:26:09;;;;;;;;;;;;;;;;;;;;;
2021/10/04 11:28:52;;;;;;;1.40;0.70;;;;;;;;;;5049514;28;20478;-59
2021/10/04 11:34:41;;;;;;;3.05;1.10;;;;;;;;;;5062435;28;20412;-58
2021/10/04 11:40:40;;;;;;;1.50;0.90;;;;;;;;;;5062447;28;20040;-59
2021/10/04 11:46:49;;;;;;;1.63;0.90;;;;;;;;;;5067059;28;20090;-59
2021/10/04 11:49:43;;;;;;;1.75;0.90;;;;;;;;;;5060244;28;20024;-59
2021/10/04 11:52:17;;;;;;;1.50;0.80;;;;;;;;;;5058079;28;20122;-59
2021/10/04 11:54:45;;;;;;;1.05;0.63;;;;;;;;;;5054617;28;20024;-59
2021/10/04 11:57:29;;;;;;;1.23;0.68;;;;;;;;;;5060961;28;20032;-59
2021/10/04 12:00:16;;;;;;;1.80;0.80;;;;;;;;;;5051723;28;20029;-59
2021/10/04 12:02:47;;;;;;;2.08;0.90;;;;;;;;;;5057385;28;20355;-58
2021/10/04 12:06:22;;;;;;;1.60;0.77;;;;;;;;;;5063516;28;20040;-58
2021/10/04 12:08:19;;;;;;;2.13;1.10;;;;;;;;;;5051669;28;20131;-59
2021/10/04 12:11:08;;;;;;;1.92;0.93;;;;;;;;;;5065623;28;20097;-59
2021/10/04 12:16:48;;;;;;;1.35;0.90;;;;;;;;;;5052119;28;20497;-59
2021/10/04 12:19:32;;;;;;;2.70;1.42;;;;;;;;;;5055427;28;20051;-59
2021/10/04 12:22:12;;;;;;;2.25;1.08;;;;;;;;;;5067101;28;20044;-59
2021/10/04 12:24:59;;;;;;;2.00;1.10;;;;;;;;;;5059412;28;20028;-59
2021/10/04 12:27:36;;;;;;;2.65;1.42;;;;;;;;;;5053483;28;20062;-59
2021/10/04 12:30:12;;;;;;;2.25;1.20;;;;;;;;;;5054677;28;20069;-58
2021/10/04 12:32:51;;;;;;;1.92;1.05;;;;;;;;;;5071921;28;20102;-59
2021/10/04 12:38:43;;;;;;;1.88;1.20;;;;;;;;;;5079121;28;20048;-58
2021/10/04 12:41:40;;;;;;;1.15;0.75;;;;;;;;;;5064902;28;20272;-59
2021/10/04 12:44:28;;;;;;;1.48;0.80;;;;;;;;;;5057869;28;20021;-59
2021/10/04 12:47:21;;;;;;;;;;;;;;;;;;;;;
2021/10/04 12:53:15;;;;;;;1.80;1.08;;;;;;;;;;5054642;28;20041;-59
2021/10/04 12:59:09;;;;;;;;;;;;;;;;;;;;;
2021/10/04 13:02:01;;;;;;;3.38;1.08;;;;;;;;;;5062806;28;20029;-59
2021/10/04 13:04:55;;;;;;;2.88;1.33;;;;;;;;;;5072322;28;20021;-58
2021/10/04 13:07:48;;;;;;;2.40;1.15;;;;;;;;;;5062036;28;20143;-59
2021/10/04 13:10:32;;;;;;;2.70;1.50;;;;;;;;;;5056851;28;20128;-58
2021/10/04 13:13:04;;;;;;;2.55;1.42;;;;;;;;;;5069789;28;20077;-59
2021/10/04 13:18:49;;;;;;;1.90;1.08;;;;;;;;;;5061324;28;20049;-59
2021/10/04 13:21:57;;;;;;;2.47;1.48;;;;;;;;;;5059135;28;20039;-59
2021/10/04 13:24:34;;;;;;;1.42;0.82;;;;;;;;;;5065030;28;20079;-59
2021/10/04 13:27:25;;;;;;;1.98;1.33;;;;;;;;;;5058274;28;20094;-59
2021/10/04 13:29:59;;;;;;;1.70;1.02;;;;;;;;;;5071942;28;20123;-59
2021/10/04 13:32:53;;;;;;;;;;;;;;;;;;;;;
2021/10/04 13:35:39;;;;;;;2.75;1.10;;;;;;;;;;5059586;28;20393;-59
2021/10/04 13:38:35;;;;;;;1.77;0.80;;;;;;;;;;5057466;28;20045;-59
2021/10/04 13:41:04;;;;;;;1.77;1.10;;;;;;;;;;5057256;28;20677;-59
2021/10/04 13:43:47;;;;;;;3.67;1.10;;;;;;;;;;5060743;28;20036;-59
2021/10/04 13:49:28;;;;;;;2.15;1.10;;;;;;;;;;5065202;28;20638;-59
2021/10/04 13:51:58;;;;;;;3.10;1.15;;;;;;;;;;5061176;28;20116;-59
2021/10/04 13:57:31;;;;;;;2.33;1.10;;;;;;;;;;5056711;28;20041;-59
2021/10/04 14:00:31;;;;;;;2.38;1.38;;;;;;;;;;5051672;28;20033;-59
2021/10/04 14:06:00;;;;;;;5.50;1.88;;;;;;;;;;5061533;28;20452;-59
2021/10/04 14:11:47;;;;;;;1.45;1.00;;;;;;;;;;5070200;28;20044;-59
2021/10/04 14:14:11;;;;;;;2.20;1.20;;;;;;;;;;5053875;28;20232;-59
2021/10/04 14:16:58;;;;;;;1.85;1.23;;;;;;;;;;5057302;28;20024;-58
2021/10/04 14:19:30;;;;;;;2.10;1.42;;;;;;;;;;5071227;28;20044;-59
2021/10/04 14:21:58;;;;;;;3.17;1.83;;;;;;;;;;5057646;28;20032;-59
2021/10/04 14:24:27;;;;;;;2.47;1.58;;;;;;;;;;5063526;28;20037;-59
2021/10/04 14:27:16;;;;;;;1.67;1.02;;;;;;;;;;5061310;28;20086;-59
2021/10/04 14:30:14;;;;;;;1.98;1.33;;;;;;;;;;5067075;28;20119;-59
2021/10/04 14:33:05;;;;;;;2.10;1.38;;;;;;;;;;5062733;28;20501;-58
2021/10/04 14:35:59;;;;;;;2.30;1.48;;;;;;;;;;5072247;28;20228;-58
2021/10/04 14:38:56;;;;;;;2.63;1.50;;;;;;;;;;5057277;28;20032;-59
2021/10/04 14:41:34;;;;;;;2.30;1.45;;;;;;;;;;5053422;28;20471;-58
2021/10/04 14:44:32;;;;;;;2.50;2.05;;;;;;;;;;5057071;28;20059;-58
2021/10/04 14:47:17;;;;;;;3.13;1.83;;;;;;;;;;5055147;28;20059;-59
2021/10/04 14:50:02;;;;;;;1.80;1.30;;;;;;;;;;5065475;28;20028;-59
2021/10/04 14:53:10;;;;;;;2.60;1.58;;;;;;;;;;5056589;28;20040;-58
2021/10/04 14:59:00;;;;;;;2.13;1.40;;;;;;;;;;5052303;28;20047;-58
2021/10/04 15:01:57;;;;;;;2.45;1.38;;;;;;;;;;5056716;28;20029;-58
2021/10/04 15:04:43;;;;;;;2.25;1.33;;;;;;;;;;5054609;28;20462;-58
2021/10/04 15:07:15;;;;;;;2.35;1.52;;;;;;;;;;5063478;28;20422;-58
2021/10/04 15:09:56;;;;;;;2.08;1.42;;;;;;;;;;5055495;28;20036;-58
2021/10/04 15:12:37;;;;;;;2.92;1.70;;;;;;;;;;5064798;28;20032;-58
2021/10/04 15:15:26;;;;;;;2.28;1.65;;;;;;;;;;5053767;28;20405;-59
2021/10/04 15:17:55;;;;;;;3.08;2.10;;;;;;;;;;5062230;28;20086;-59
2021/10/04 15:20:42;;;;;;;3.03;2.30;;;;;;;;;;5057500;28;20607;-59
2021/10/04 15:23:26;;;;;;;2.55;1.60;;;;;;;;;;5058812;28;20040;-59
2021/10/04 15:26:14;;;;;;;;;;;;;;;;;;;;;
2021/10/04 15:29:03;;;;;;;2.83;2.22;;;;;;;;;;5058632;28;20470;-59
2021/10/04 15:31:44;;;;;;;3.95;2.65;;;;;;;;;;5053419;28;20469;-59
2021/10/04 15:34:35;;;;;;;4.63;3.00;;;;;;;;;;5065970;28;20048;-59
2021/10/04 15:37:07;;;;;;;9.63;2.60;;;;;;;;;;5067423;28;20160;-59
2021/10/04 15:39:59;;;;;;;4.20;2.75;;;;;;;;;;5056771;28;20028;-59
2021/10/04 15:42:44;;;;;;;5.05;2.83;;;;;;;;;;5069753;28;20358;-59
2021/10/04 15:45:33;;;;;;;2.50;1.65;;;;;;;;;;5084810;28;20524;-59
2021/10/04 15:48:11;;;;;;;2.65;1.80;;;;;;;;;;5058583;28;20100;-59
2021/10/04 15:53:58;;;;;;;;;;;;;;;;;;;;;
2021/10/04 15:56:38;;;;;;;2.95;1.55;;;;;;;;;;5056290;28;20045;-59
2021/10/04 15:59:13;;;;;;;1.85;1.20;;;;;;;;;;5053582;28;20501;-59
2021/10/04 16:01:51;;;;;;;2.15;1.17;;;;;;;;;;5063744;28;20059;-59
2021/10/04 16:04:33;;;;;;;2.45;1.48;;;;;;;;;;5053267;28;20110;-59
2021/10/04 16:07:11;;;;;;;1.52;0.80;;;;;;;;;;5050106;28;20029;-59
2021/10/04 16:09:48;;;;;;;1.65;0.98;;;;;;;;;;5068371;28;20043;-59
2021/10/04 16:12:36;;;;;;;1.40;0.73;;;;;;;;;;5050657;28;20055;-59
2021/10/04 16:15:41;;;;;;;1.67;0.88;;;;;;;;;;5062550;28;20089;-59
2021/10/04 16:18:26;;;;;;;0.85;0.47;;;;;;;;;;5059971;28;20053;-59
2021/10/04 16:21:14;;;;;;;1.73;0.95;;;;;;;;;;5071917;28;20075;-59
2021/10/04 16:23:50;;;;;;;1.85;0.95;;;;;;;;;;5061178;28;20033;-59
2021/10/04 16:26:29;;;;;;;1.15;0.63;;;;;;;;;;5069105;28;20131;-59
2021/10/04 16:29:15;;;;;;;2.08;0.80;;;;;;;;;;5064847;28;20478;-59
2021/10/04 16:31:54;;;;;;;1.27;0.70;;;;;;;;;;5057290;28;20393;-59
2021/10/04 16:34:39;;;;;;;1.27;0.65;;;;;;;;;;5064055;28;20385;-59
2021/10/04 16:37:09;;;;;;;1.67;0.98;;;;;;;;;;5070274;28;20033;-59
2021/10/04 16:42:46;;;;;;;1.42;0.63;;;;;;;;;;5054699;28;20025;-59
2021/10/04 16:45:30;;;;;;;2.13;1.27;;;;;;;;;;5069698;28;20154;-59
2021/10/04 16:51:20;;;;;;;1.85;1.05;;;;;;;;;;5058895;28;20106;-59
2021/10/04 16:53:46;;;;;;;1.70;0.77;;;;;;;;;;5056881;28;20040;-59
2021/10/04 16:56:24;;;;;;;1.80;1.00;;;;;;;;;;5061255;28;20032;-59
2021/10/04 17:02:02;;;;;;;1.85;0.95;;;;;;;;;;5065311;28;20035;-59
2021/10/04 17:04:45;;;;;;;2.92;1.30;;;;;;;;;;5069137;28;20060;-59
2021/10/04 17:07:39;;;;;;;1.40;0.82;;;;;;;;;;5068595;28;20101;-59
2021/10/04 17:13:13;;;;;;;2.83;1.17;;;;;;;;;;5070995;28;20036;-59
2021/10/04 17:15:42;;;;;;;;;;;;;;;;;;5068703;28;20025;-59
2021/10/04 17:18:19;;;;;;;2.38;1.05;;;;;;;;;;5053648;28;19920;-59